Time;durP1;ratioP1;P1;durP2;ratioP2;P2;SDS_P1;SDS_P2;PMS_P1;PMS_P2;Temp;Humidity;BMP_temperature;BMP_pressure;BME280_temperature;BME280_humidity;BME280_pressure;Samples;Min_cycle;Max_cycle;Signal;HPM_P1;HPM_P2
2022/05/31 00:01:14;;;;;;;0.73;0.40;;;24.00;42.50;;;;;;5013358;28;20021;-50
2022/05/31 00:03:41;;;;;;;0.95;0.40;;;24.00;42.40;;;;;;5013133;28;20029;-49
2022/05/31 00:06:06;;;;;;;0.52;0.25;;;24.00;42.60;;;;;;5013106;28;20153;-50
2022/05/31 00:08:33;;;;;;;1.35;0.55;;;24.00;42.60;;;;;;5013928;28;20259;-50
2022/05/31 00:11:00;;;;;;;0.68;0.30;;;24.00;42.50;;;;;;5014081;28;20040;-50
2022/05/31 00:13:27;;;;;;;1.67;0.52;;;24.00;42.50;;;;;;5013158;28;20057;-49
2022/05/31 00:15:53;;;;;;;1.13;0.60;;;24.00;42.40;;;;;;4973919;28;1143153;-49
2022/05/31 00:18:19;;;;;;;1.42;0.40;;;24.00;42.50;;;;;;5014167;28;20022;-49
2022/05/31 00:20:45;;;;;;;0.90;0.38;;;24.00;43.20;;;;;;5014198;28;20028;-49
2022/05/31 00:23:11;;;;;;;0.85;0.30;;;24.00;42.50;;;;;;5014269;28;20022;-50
2022/05/31 00:25:37;;;;;;;0.98;0.45;;;24.00;42.50;;;;;;5015376;28;20037;-50
2022/05/31 00:28:03;;;;;;;1.33;0.60;;;24.00;42.40;;;;;;5015602;28;20029;-52
2022/05/31 00:30:29;;;;;;;0.68;0.30;;;24.00;42.40;;;;;;5017727;28;20091;-51
2022/05/31 00:32:56;;;;;;;0.57;0.28;;;23.90;42.40;;;;;;5017663;28;20082;-51
2022/05/31 00:35:28;;;;;;;0.65;0.30;;;23.90;42.50;;;;;;5016296;28;20048;-51
2022/05/31 00:37:54;;;;;;;1.27;0.40;;;23.90;42.50;;;;;;5013802;28;20018;-51
2022/05/31 00:40:22;;;;;;;2.03;0.40;;;23.90;42.40;;;;;;5015163;28;20041;-51
2022/05/31 00:42:56;;;;;;;1.08;0.40;;;23.90;42.50;;;;;;5013395;28;20026;-51
2022/05/31 00:45:56;;;;;;;1.27;0.30;;;23.90;42.50;;;;;;5013982;28;20117;-51
2022/05/31 00:48:30;;;;;;;0.80;0.40;;;23.90;42.40;;;;;;5013775;28;20053;-51
2022/05/31 00:51:01;;;;;;;0.43;0.20;;;23.90;42.50;;;;;;5013394;28;20426;-51
2022/05/31 00:53:46;;;;;;;1.80;0.40;;;23.90;42.50;;;;;;5013185;28;20022;-52
2022/05/31 00:56:19;;;;;;;1.45;0.45;;;23.90;42.50;;;;;;5013329;28;20041;-51
2022/05/31 00:59:08;;;;;;;1.23;0.30;;;23.90;42.50;;;;;;5012590;28;20516;-52
2022/05/31 01:01:37;;;;;;;0.65;0.32;;;23.90;42.50;;;;;;5013013;28;20091;-52
2022/05/31 01:04:04;;;;;;;2.28;0.57;;;23.90;42.50;;;;;;5023524;28;20491;-52
2022/05/31 01:06:30;;;;;;;0.65;0.30;;;23.90;42.50;;;;;;5023608;28;20108;-51
2022/05/31 01:08:57;;;;;;;0.55;0.20;;;23.90;42.50;;;;;;5023801;28;20117;-51
2022/05/31 01:11:27;;;;;;;0.68;0.30;;;23.90;42.50;;;;;;5022797;28;20723;-51
2022/05/31 01:13:53;;;;;;;1.10;0.30;;;23.80;42.40;;;;;;5023373;28;20038;-51
2022/05/31 01:16:20;;;;;;;0.70;0.30;;;23.90;42.60;;;;;;5023775;28;20680;-51
2022/05/31 01:18:45;;;;;;;0.65;0.30;;;23.90;42.60;;;;;;5024023;28;20117;-52
2022/05/31 01:21:11;;;;;;;1.15;0.47;;;23.80;42.50;;;;;;5023558;28;20021;-50
2022/05/31 01:24:08;;;;;;;0.88;0.30;;;23.90;42.70;;;;;;5023128;28;20032;-51
2022/05/31 01:26:55;;;;;;;0.65;0.30;;;23.80;42.60;;;;;;5023123;28;20025;-51
2022/05/31 01:29:28;;;;;;;0.68;0.30;;;23.80;42.60;;;;;;5023713;28;20026;-51
2022/05/31 01:31:59;;;;;;;0.63;0.30;;;23.80;42.70;;;;;;5023887;28;20537;-51
2022/05/31 01:34:41;;;;;;;1.33;0.43;;;23.80;42.70;;;;;;5023524;28;20182;-51
2022/05/31 01:37:07;;;;;;;0.88;0.35;;;23.80;42.70;;;;;;5023888;28;20201;-52
2022/05/31 01:39:57;;;;;;;0.73;0.38;;;23.80;42.80;;;;;;5023328;28;20378;-51
2022/05/31 01:42:34;;;;;;;0.68;0.30;;;23.80;42.80;;;;;;5021130;28;20460;-50
2022/05/31 01:45:06;;;;;;;0.82;0.30;;;23.80;42.70;;;;;;5023341;28;20460;-49
2022/05/31 01:47:33;;;;;;;0.93;0.40;;;23.80;42.80;;;;;;5023600;28;20025;-49
2022/05/31 01:49:59;;;;;;;0.68;0.30;;;23.80;42.80;;;;;;5023835;28;20033;-49
2022/05/31 01:52:26;;;;;;;0.40;0.20;;;23.80;42.80;;;;;;5022760;28;20535;-49
2022/05/31 01:54:53;;;;;;;0.93;0.30;;;23.80;42.70;;;;;;5023242;28;20026;-49
2022/05/31 01:57:21;;;;;;;0.57;0.40;;;23.80;42.80;;;;;;5023273;28;20385;-49
2022/05/31 01:59:52;;;;;;;0.88;0.30;;;23.80;42.80;;;;;;5023336;28;20083;-49
2022/05/31 02:02:20;;;;;;;0.57;0.30;;;23.80;42.80;;;;;;5022227;28;20056;-49
2022/05/31 02:04:46;;;;;;;0.93;0.35;;;23.80;42.80;;;;;;5022678;28;20030;-50
2022/05/31 02:07:15;;;;;;;1.67;0.50;;;23.80;42.90;;;;;;5023508;28;20029;-50
2022/05/31 02:09:42;;;;;;;0.45;0.20;;;23.70;42.90;;;;;;5022513;28;20457;-49
2022/05/31 02:12:10;;;;;;;0.93;0.30;;;23.80;42.90;;;;;;5025577;28;20057;-50
2022/05/31 02:14:36;;;;;;;0.35;0.22;;;23.80;42.90;;;;;;5026804;28;20575;-50
2022/05/31 02:17:02;;;;;;;0.77;0.30;;;23.70;42.90;;;;;;5027220;28;20378;-49
2022/05/31 02:19:28;;;;;;;0.93;0.40;;;23.80;42.90;;;;;;5027168;28;20029;-50
2022/05/31 02:22:01;;;;;;;1.02;0.50;;;23.70;42.90;;;;;;5027310;28;20095;-49
2022/05/31 02:24:27;;;;;;;0.60;0.30;;;23.80;42.90;;;;;;5027135;28;20029;-49
2022/05/31 02:26:54;;;;;;;0.70;0.20;;;23.70;42.90;;;;;;5027558;28;20109;-50
2022/05/31 02:29:23;;;;;;;0.55;0.30;;;23.70;42.90;;;;;;5026721;28;20045;-49
2022/05/31 02:31:49;;;;;;;0.30;0.22;;;23.70;42.90;;;;;;5026094;28;20484;-49
2022/05/31 02:34:17;;;;;;;0.75;0.30;;;23.70;42.90;;;;;;5026766;28;20690;-49
2022/05/31 02:36:43;;;;;;;1.00;0.30;;;23.70;42.90;;;;;;5026418;28;20032;-49
2022/05/31 02:39:09;;;;;;;0.77;0.40;;;23.70;42.90;;;;;;5025104;28;20029;-50
2022/05/31 02:41:35;;;;;;;0.70;0.28;;;23.70;42.90;;;;;;5026483;28;20207;-50
2022/05/31 02:44:01;;;;;;;0.52;0.30;;;23.70;42.90;;;;;;5025958;28;20033;-49
2022/05/31 02:46:28;;;;;;;0.68;0.30;;;23.70;42.90;;;;;;5026428;28;20803;-49
2022/05/31 02:48:54;;;;;;;0.63;0.38;;;23.70;42.90;;;;;;5026559;28;20033;-48
2022/05/31 02:51:20;;;;;;;0.73;0.30;;;23.70;42.90;;;;;;5025103;28;20397;-49
2022/05/31 02:53:46;;;;;;;0.63;0.30;;;23.70;42.90;;;;;;5025652;28;20018;-50
2022/05/31 02:56:12;;;;;;;0.82;0.30;;;23.70;43.00;;;;;;5026473;28;20601;-50
2022/05/31 02:58:38;;;;;;;0.35;0.20;;;23.70;42.90;;;;;;5025868;28;20064;-49
2022/05/31 03:01:23;;;;;;;0.40;0.20;;;23.70;43.00;;;;;;5025518;28;20057;-49
2022/05/31 03:03:49;;;;;;;0.70;0.30;;;23.70;42.90;;;;;;5026085;28;20036;-50
2022/05/31 03:06:15;;;;;;;0.60;0.20;;;23.70;42.90;;;;;;5025995;28;20044;-49
2022/05/31 03:08:41;;;;;;;0.25;0.10;;;23.70;43.00;;;;;;5026181;28;20665;-50
2022/05/31 03:11:15;;;;;;;0.28;0.20;;;23.70;42.90;;;;;;5025573;28;20040;-49
2022/05/31 03:13:43;;;;;;;0.55;0.30;;;23.70;43.00;;;;;;5025281;28;20109;-49
2022/05/31 03:16:09;;;;;;;0.45;0.20;;;23.70;43.00;;;;;;5025825;28;20038;-50
2022/05/31 03:18:39;;;;;;;0.63;0.30;;;23.70;43.00;;;;;;5020454;28;20034;-49
2022/05/31 03:21:18;;;;;;;0.90;0.30;;;23.70;42.90;;;;;;5006184;28;20591;-49
2022/05/31 03:23:49;;;;;;;0.50;0.10;;;23.70;43.00;;;;;;5004840;28;20061;-48
2022/05/31 03:26:16;;;;;;;0.88;0.35;;;23.70;42.90;;;;;;5025081;28;20045;-51
2022/05/31 03:28:43;;;;;;;0.43;0.28;;;23.70;43.00;;;;;;5025739;28;20033;-53
2022/05/31 03:31:09;;;;;;;0.88;0.30;;;23.70;43.00;;;;;;5025383;28;20030;-49
2022/05/31 03:33:35;;;;;;;0.75;0.30;;;23.70;43.00;;;;;;5025046;28;20029;-49
2022/05/31 03:36:01;;;;;;;0.63;0.30;;;23.70;43.00;;;;;;5025670;28;20032;-49
2022/05/31 03:38:27;;;;;;;1.13;0.40;;;23.70;42.90;;;;;;5025135;28;20115;-49
2022/05/31 03:40:59;;;;;;;0.73;0.30;;;23.70;43.00;;;;;;5025239;28;20037;-48
2022/05/31 03:43:30;;;;;;;0.93;0.30;;;23.70;43.00;;;;;;5025086;28;20287;-49
2022/05/31 03:45:56;;;;;;;0.45;0.30;;;23.70;43.00;;;;;;5025037;28;20033;-50
2022/05/31 03:48:22;;;;;;;0.75;0.40;;;23.70;43.00;;;;;;5024388;28;20037;-49
2022/05/31 03:51:03;;;;;;;0.95;0.28;;;23.70;43.00;;;;;;5023058;28;20454;-49
2022/05/31 03:53:29;;;;;;;0.77;0.40;;;23.70;43.00;;;;;;5024157;28;20043;-49
2022/05/31 03:55:55;;;;;;;0.60;0.28;;;23.70;43.00;;;;;;5024170;28;20038;-49
2022/05/31 03:58:21;;;;;;;1.10;0.30;;;23.70;43.00;;;;;;5024457;28;20087;-49
2022/05/31 04:00:47;;;;;;;0.45;0.22;;;23.70;43.00;;;;;;5021060;28;20030;-49
2022/05/31 04:03:13;;;;;;;0.30;0.20;;;23.70;42.90;;;;;;5022621;28;20493;-49
2022/05/31 04:05:39;;;;;;;0.38;0.20;;;23.70;42.90;;;;;;5022909;28;20040;-50
2022/05/31 04:08:08;;;;;;;0.45;0.20;;;23.60;42.80;;;;;;5022165;28;20033;-49
2022/05/31 04:10:35;;;;;;;0.30;0.20;;;23.60;42.90;;;;;;5023778;28;20079;-49
2022/05/31 04:13:01;;;;;;;0.60;0.20;;;23.70;43.00;;;;;;5024124;28;20039;-49
2022/05/31 04:15:27;;;;;;;0.60;0.30;;;23.60;42.90;;;;;;5024637;28;20604;-49
2022/05/31 04:17:53;;;;;;;0.10;0.10;;;23.60;42.90;;;;;;5024510;28;20070;-49
2022/05/31 04:20:19;;;;;;;0.57;0.30;;;23.60;42.90;;;;;;5023072;28;20846;-49
2022/05/31 04:22:46;;;;;;;0.65;0.30;;;23.60;42.90;;;;;;5023636;28;20087;-49
2022/05/31 04:25:11;;;;;;;0.50;0.22;;;23.60;42.90;;;;;;5024121;28;20680;-48
2022/05/31 04:27:37;;;;;;;1.05;0.30;;;23.60;42.90;;;;;;5023645;28;20117;-49
2022/05/31 04:30:03;;;;;;;0.38;0.20;;;23.60;43.30;;;;;;5023578;28;20092;-49
2022/05/31 04:32:29;;;;;;;0.70;0.25;;;23.60;43.00;;;;;;5023408;28;20041;-49
2022/05/31 04:34:55;;;;;;;0.50;0.20;;;23.60;43.00;;;;;;5021649;28;20526;-49
2022/05/31 04:37:21;;;;;;;0.32;0.20;;;23.60;42.90;;;;;;5016768;28;20042;-49
2022/05/31 04:39:46;;;;;;;0.32;0.15;;;23.60;42.90;;;;;;5016711;28;20716;-52
2022/05/31 04:42:12;;;;;;;0.70;0.30;;;23.60;43.00;;;;;;5015010;28;20037;-49
2022/05/31 04:44:38;;;;;;;0.47;0.20;;;23.60;42.90;;;;;;5014719;28;20106;-50
2022/05/31 04:47:05;;;;;;;1.05;0.40;;;23.60;42.90;;;;;;5016590;28;20083;-51
2022/05/31 04:49:31;;;;;;;0.98;0.40;;;23.60;42.90;;;;;;5015414;28;20115;-50
2022/05/31 04:51:57;;;;;;;0.85;0.30;;;23.60;42.90;;;;;;5014472;28;20083;-49
2022/05/31 04:54:24;;;;;;;14.50;4.45;;;23.70;43.00;;;;;;5017521;28;20508;-49
2022/05/31 04:56:52;;;;;;;13.70;4.40;;;23.70;49.00;;;;;;5020967;28;20030;-50
2022/05/31 04:59:19;;;;;;;10.82;3.20;;;23.70;49.90;;;;;;5013747;28;20020;-48
2022/05/31 05:01:45;;;;;;;10.82;3.22;;;23.70;51.10;;;;;;5011902;28;20691;-49
2022/05/31 05:04:11;;;;;;;5.97;1.92;;;23.70;50.70;;;;;;5012452;28;20025;-49
2022/05/31 05:06:37;;;;;;;9.75;3.33;;;23.70;50.40;;;;;;5010909;28;20091;-49
2022/05/31 05:09:04;;;;;;;10.90;3.22;;;23.70;50.30;;;;;;5011722;28;20693;-49
2022/05/31 05:11:32;;;;;;;10.63;2.92;;;23.80;49.90;;;;;;5012575;28;20517;-49
2022/05/31 05:13:57;;;;;;;9.73;2.55;;;23.80;49.50;;;;;;5011526;28;20013;-49
2022/05/31 05:16:23;;;;;;;7.38;2.55;;;23.80;49.20;;;;;;5010774;28;20179;-49
2022/05/31 05:18:49;;;;;;;7.45;2.13;;;23.80;48.90;;;;;;5011526;28;20105;-49
2022/05/31 05:21:16;;;;;;;6.93;1.95;;;23.80;48.50;;;;;;5010962;28;20706;-47
2022/05/31 05:23:42;;;;;;;3.75;1.08;;;23.80;48.00;;;;;;5014060;28;20647;-47
2022/05/31 05:26:09;;;;;;;5.82;1.50;;;23.80;48.40;;;;;;5012366;28;20108;-47
2022/05/31 05:31:24;;;;;;;19.10;4.18;;;23.80;47.90;;;;;;5014322;28;20040;-48
2022/05/31 05:33:50;;;;;;;24.08;6.93;;;23.90;48.60;;;;;;5016673;28;20033;-49
2022/05/31 05:36:17;;;;;;;23.58;7.40;;;23.80;49.00;;;;;;5016510;28;20496;-49
2022/05/31 05:38:43;;;;;;;32.53;8.73;;;23.90;49.10;;;;;;5013821;28;20030;-47
2022/05/31 05:41:10;;;;;;;20.20;6.97;;;23.90;48.80;;;;;;5012777;28;20053;-48
2022/05/31 05:43:35;;;;;;;19.50;7.43;;;23.90;48.10;;;;;;5012313;28;20676;-49
2022/05/31 05:46:01;;;;;;;14.70;5.53;;;23.90;47.90;;;;;;5014883;28;20129;-50
2022/05/31 05:48:27;;;;;;;18.25;5.40;;;23.90;47.70;;;;;;5017027;28;20033;-53
2022/05/31 05:50:52;;;;;;;16.00;5.43;;;23.90;47.60;;;;;;5015323;28;20236;-55
2022/05/31 05:53:18;;;;;;;13.23;4.40;;;24.00;47.50;;;;;;5015568;28;20018;-53
2022/05/31 05:55:44;;;;;;;12.57;4.55;;;24.00;47.70;;;;;;5017137;28;20096;-48
2022/05/31 05:58:10;;;;;;;15.93;4.20;;;24.00;47.30;;;;;;5016722;28;20022;-48
2022/05/31 06:00:45;;;;;;;12.43;4.07;;;24.00;48.00;;;;;;5019207;28;20101;-52
2022/05/31 06:03:44;;;;;;;13.80;4.97;;;24.00;47.20;;;;;;5026672;28;20394;-48
2022/05/31 06:06:13;;;;;;;13.40;3.72;;;24.00;47.00;;;;;;4955072;28;20045;-48
2022/05/31 06:08:48;;;;;;;11.50;4.18;;;24.00;47.00;;;;;;5007217;28;20026;-48
2022/05/31 06:11:22;;;;;;;10.25;3.80;;;24.00;47.00;;;;;;5024132;28;20026;-47
2022/05/31 06:13:55;;;;;;;9.65;3.50;;;24.10;46.90;;;;;;5026069;28;20041;-46
2022/05/31 06:16:26;;;;;;;10.85;2.90;;;24.10;47.10;;;;;;5021859;28;20064;-50
2022/05/31 06:18:58;;;;;;;7.00;2.28;;;24.10;46.70;;;;;;5015805;28;20045;-49
2022/05/31 06:21:25;;;;;;;9.43;3.03;;;24.10;46.30;;;;;;5015014;28;20041;-48
2022/05/31 06:23:53;;;;;;;7.35;2.85;;;24.10;46.10;;;;;;5013553;28;20045;-48
2022/05/31 06:26:19;;;;;;;7.75;2.80;;;24.10;46.00;;;;;;5015681;28;20045;-49
2022/05/31 06:28:46;;;;;;;6.32;2.58;;;24.10;45.80;;;;;;5015712;28;20030;-51
2022/05/31 06:31:12;;;;;;;7.95;2.28;;;24.10;45.70;;;;;;5015790;28;20075;-50
2022/05/31 06:33:38;;;;;;;8.50;2.70;;;24.10;45.70;;;;;;5014570;28;20018;-50
2022/05/31 06:36:06;;;;;;;10.55;2.47;;;24.10;45.80;;;;;;5016006;28;20025;-50
2022/05/31 06:38:31;;;;;;;5.97;2.25;;;24.20;45.70;;;;;;5014787;28;20354;-50
2022/05/31 06:40:57;;;;;;;5.13;1.55;;;24.20;45.60;;;;;;5015411;28;20060;-51
2022/05/31 06:43:23;;;;;;;6.07;2.30;;;24.20;45.60;;;;;;5013339;28;20283;-50
2022/05/31 06:45:49;;;;;;;6.45;2.25;;;24.10;45.50;;;;;;5005928;28;20449;-51
2022/05/31 06:48:15;;;;;;;6.75;1.88;;;24.10;45.30;;;;;;5005119;28;20107;-50
2022/05/31 06:50:41;;;;;;;6.97;2.50;;;24.20;45.30;;;;;;5004670;28;20034;-51
2022/05/31 06:58:40;;;;;;;7.75;2.63;;;24.20;45.00;;;;;;5025301;28;20017;-50
2022/05/31 07:01:05;;;;;;;5.03;1.90;;;24.20;45.00;;;;;;5025655;28;20022;-51
2022/05/31 07:03:31;;;;;;;4.55;1.58;;;24.10;45.00;;;;;;5025575;28;20044;-51
2022/05/31 07:05:58;;;;;;;5.72;1.83;;;24.10;44.90;;;;;;5025589;28;20033;-50
2022/05/31 07:08:25;;;;;;;4.45;1.88;;;24.10;44.80;;;;;;5024663;28;20076;-50
2022/05/31 07:10:51;;;;;;;4.82;1.50;;;24.20;44.80;;;;;;5024624;28;20044;-50
2022/05/31 07:13:18;;;;;;;5.95;2.03;;;24.10;44.90;;;;;;5025337;28;20366;-50
2022/05/31 07:15:44;;;;;;;4.55;1.80;;;24.10;44.80;;;;;;5025403;28;20061;-50
2022/05/31 07:18:10;;;;;;;4.95;2.08;;;24.20;44.80;;;;;;5025878;28;20457;-51
2022/05/31 07:20:36;;;;;;;5.03;1.92;;;24.10;44.80;;;;;;5025441;28;20029;-51
2022/05/31 07:23:01;;;;;;;6.15;2.08;;;24.10;44.70;;;;;;5025383;28;20035;-51
2022/05/31 07:25:27;;;;;;;4.43;1.63;;;24.10;44.70;;;;;;5023830;28;20104;-49
2022/05/31 07:27:53;;;;;;;5.40;2.22;;;24.10;44.70;;;;;;5025084;28;20171;-50
2022/05/31 07:30:19;;;;;;;4.68;1.80;;;24.10;44.70;;;;;;5025478;28;20030;-50
2022/05/31 07:32:44;;;;;;;4.43;1.88;;;24.10;44.70;;;;;;5025220;28;20032;-49
2022/05/31 07:35:10;;;;;;;4.28;1.55;;;24.10;44.60;;;;;;5025267;28;20398;-51
2022/05/31 07:37:37;;;;;;;5.78;2.10;;;24.10;44.60;;;;;;5024610;28;20541;-51
2022/05/31 07:40:03;;;;;;;5.53;2.25;;;24.10;44.60;;;;;;5024834;28;20045;-51
2022/05/31 07:42:29;;;;;;;5.80;1.60;;;24.10;44.60;;;;;;5025033;28;20029;-49
2022/05/31 07:44:56;;;;;;;3.38;1.40;;;24.10;44.60;;;;;;5025621;28;20032;-52
2022/05/31 07:47:23;;;;;;;6.45;2.58;;;24.10;44.50;;;;;;5025422;28;20029;-50
2022/05/31 07:49:49;;;;;;;5.38;1.52;;;24.10;44.50;;;;;;5025355;28;20034;-50
2022/05/31 07:52:15;;;;;;;5.43;1.80;;;24.10;44.50;;;;;;5024683;28;20037;-51
2022/05/31 07:54:41;;;;;;;5.88;1.92;;;24.10;44.50;;;;;;5024541;28;20029;-50
2022/05/31 07:57:07;;;;;;;5.38;1.70;;;24.10;44.50;;;;;;5024911;28;20024;-50
2022/05/31 07:59:34;;;;;;;4.20;1.70;;;24.10;44.40;;;;;;5025062;28;20599;-50
2022/05/31 08:02:01;;;;;;;3.80;1.58;;;24.10;44.40;;;;;;5024880;28;20025;-49
2022/05/31 08:04:27;;;;;;;5.13;1.67;;;24.10;44.40;;;;;;5025008;28;20041;-50
2022/05/31 08:06:57;;;;;;;4.80;1.80;;;24.10;44.40;;;;;;5024729;28;20025;-50
2022/05/31 08:09:23;;;;;;;4.53;1.40;;;24.10;44.40;;;;;;5024093;28;20035;-50
2022/05/31 08:11:49;;;;;;;5.25;1.40;;;24.00;44.30;;;;;;5023997;28;20026;-51
2022/05/31 08:14:14;;;;;;;4.30;1.40;;;24.10;44.40;;;;;;5024914;28;20071;-50
2022/05/31 08:16:40;;;;;;;4.38;1.48;;;24.10;44.40;;;;;;5023875;28;20041;-50
2022/05/31 08:19:06;;;;;;;3.25;1.60;;;24.10;44.40;;;;;;5024161;28;20068;-49
2022/05/31 08:21:32;;;;;;;4.43;1.63;;;24.10;44.40;;;;;;5024443;28;20037;-49
2022/05/31 08:24:06;;;;;;;4.78;1.95;;;24.10;44.40;;;;;;5023645;28;20108;-50
2022/05/31 08:26:33;;;;;;;5.13;2.30;;;24.10;44.40;;;;;;5024354;28;20039;-49
2022/05/31 08:28:58;;;;;;;4.85;1.83;;;24.10;44.40;;;;;;5024834;28;20021;-50
2022/05/31 08:31:32;;;;;;;3.90;1.58;;;24.10;44.40;;;;;;5024259;28;20573;-50
2022/05/31 08:33:58;;;;;;;4.10;1.40;;;24.10;44.50;;;;;;5023620;28;20021;-50
2022/05/31 08:36:24;;;;;;;6.35;2.13;;;24.00;44.30;;;;;;5024711;28;20026;-49
2022/05/31 08:38:50;;;;;;;4.60;1.80;;;24.10;44.40;;;;;;5023393;28;20044;-50
2022/05/31 08:41:27;;;;;;;4.05;1.45;;;24.10;44.40;;;;;;5023803;28;20055;-50
2022/05/31 08:43:59;;;;;;;3.88;1.40;;;24.10;44.40;;;;;;5024009;28;20520;-50
2022/05/31 08:47:02;;;;;;;3.97;1.70;;;24.10;44.40;;;;;;5023594;28;20095;-49
2022/05/31 08:53:09;;;;;;;2.88;1.13;;;24.00;44.30;;;;;;5023220;28;20643;-51
2022/05/31 08:58:32;;;;;;;4.05;1.38;;;24.10;44.40;;;;;;5022838;28;20524;-50
2022/05/31 09:00:59;;;;;;;3.67;1.50;;;24.00;44.30;;;;;;5023819;28;20596;-49
2022/05/31 09:03:38;;;;;;;3.00;1.30;;;24.00;44.30;;;;;;5023785;28;20369;-50
2022/05/31 09:06:07;;;;;;;5.40;1.55;;;24.10;44.40;;;;;;5023173;28;20033;-49
2022/05/31 09:08:44;;;;;;;3.30;1.10;;;24.10;44.30;;;;;;5022328;28;20022;-50
2022/05/31 09:11:20;;;;;;;4.85;1.85;;;24.00;44.20;;;;;;5022946;28;20038;-50
2022/05/31 09:13:53;;;;;;;3.20;1.30;;;24.00;44.20;;;;;;5022978;28;20025;-49
2022/05/31 09:16:53;;;;;;;3.60;1.35;;;24.00;44.20;;;;;;5022594;28;20132;-49
2022/05/31 09:19:29;;;;;;;3.92;1.08;;;24.10;44.20;;;;;;5023029;28;20187;-50
2022/05/31 09:21:56;;;;;;;4.70;1.60;;;24.00;44.10;;;;;;5024864;28;20041;-49
2022/05/31 09:24:22;;;;;;;2.75;1.13;;;24.00;44.10;;;;;;5027098;28;20099;-50
2022/05/31 09:27:11;;;;;;;3.03;1.10;;;24.00;44.00;;;;;;5026855;28;20029;-50
2022/05/31 09:29:45;;;;;;;6.03;1.63;;;24.00;44.00;;;;;;5027303;28;20025;-49
2022/05/31 09:32:39;;;;;;;3.95;1.20;;;24.00;44.10;;;;;;5027372;28;20037;-51
2022/05/31 09:35:09;;;;;;;3.58;1.45;;;24.00;44.10;;;;;;5027003;28;20284;-49
2022/05/31 09:38:03;;;;;;;4.00;1.10;;;24.00;44.10;;;;;;5027293;28;20018;-49
2022/05/31 09:40:46;;;;;;;4.22;1.27;;;24.00;44.10;;;;;;5024652;28;20041;-49
2022/05/31 09:43:18;;;;;;;3.30;1.30;;;24.00;44.10;;;;;;5026446;28;20132;-50
2022/05/31 09:46:11;;;;;;;4.13;1.30;;;24.00;44.00;;;;;;5026983;28;20088;-50
2022/05/31 09:48:50;;;;;;;3.15;1.00;;;24.00;44.00;;;;;;5026461;28;20679;-49
2022/05/31 09:51:21;;;;;;;3.08;1.27;;;24.00;44.00;;;;;;5027090;28;20041;-50
2022/05/31 09:59:24;;;;;;;3.10;1.00;;;24.00;43.90;;;;;;5026578;28;20453;-50
2022/05/31 10:01:49;;;;;;;2.95;0.93;;;24.00;43.90;;;;;;5026554;28;20108;-50
2022/05/31 10:04:31;;;;;;;3.72;1.13;;;24.00;43.90;;;;;;5026784;28;20128;-49
2022/05/31 10:07:05;;;;;;;3.30;1.10;;;24.00;43.90;;;;;;5026854;28;20501;-50
2022/05/31 10:09:43;;;;;;;2.17;1.00;;;24.00;43.80;;;;;;5026779;28;20517;-49
2022/05/31 10:12:35;;;;;;;3.08;1.40;;;24.00;43.80;;;;;;5026118;28;20037;-50
2022/05/31 10:15:05;;;;;;;2.83;1.17;;;24.00;43.90;;;;;;5024079;28;20488;-49
2022/05/31 10:17:42;;;;;;;2.90;1.10;;;24.00;43.80;;;;;;5026541;28;20030;-49
2022/05/31 10:20:21;;;;;;;2.58;1.10;;;24.00;43.80;;;;;;5026785;28;20029;-50
2022/05/31 10:23:00;;;;;;;3.05;1.02;;;24.00;43.90;;;;;;5025683;28;20087;-50
2022/05/31 10:25:33;;;;;;;3.65;1.30;;;24.00;43.90;;;;;;5026713;28;20045;-50
2022/05/31 10:28:01;;;;;;;2.33;0.90;;;24.00;43.90;;;;;;5027058;28;20033;-50
2022/05/31 10:30:29;;;;;;;2.38;0.80;;;24.10;43.90;;;;;;5025983;28;20133;-50
2022/05/31 10:33:04;;;;;;;3.15;1.20;;;24.00;43.80;;;;;;5025524;28;20730;-50
2022/05/31 10:35:34;;;;;;;2.63;0.90;;;24.00;43.80;;;;;;5026346;28;20584;-50
2022/05/31 10:38:18;;;;;;;3.40;1.00;;;24.10;43.80;;;;;;5026896;28;20060;-50
2022/05/31 10:41:00;;;;;;;2.28;0.80;;;24.00;43.80;;;;;;5025896;28;20101;-50
2022/05/31 10:43:41;;;;;;;2.08;0.90;;;24.00;43.70;;;;;;5025901;28;20896;-50
2022/05/31 10:46:26;;;;;;;2.38;0.98;;;24.00;43.70;;;;;;5026452;28;20036;-52
2022/05/31 10:48:56;;;;;;;2.35;0.98;;;24.00;43.70;;;;;;5026102;28;20187;-50
2022/05/31 10:51:27;;;;;;;3.25;1.27;;;24.10;43.80;;;;;;5025779;28;20053;-50
2022/05/31 10:53:52;;;;;;;2.95;1.10;;;24.00;43.80;;;;;;5025500;28;20034;-50
2022/05/31 10:56:28;;;;;;;2.63;0.98;;;24.10;43.80;;;;;;5025532;28;20366;-49
2022/05/31 10:59:03;;;;;;;2.92;1.02;;;24.00;43.70;;;;;;5026261;28;20040;-50
2022/05/31 11:01:59;;;;;;;2.53;1.20;;;24.10;43.80;;;;;;5025489;28;20036;-49
2022/05/31 11:04:39;;;;;;;2.67;1.00;;;24.10;43.80;;;;;;5025759;28;20029;-50
2022/05/31 11:07:16;;;;;;;2.65;1.00;;;24.10;43.80;;;;;;5025367;28;20032;-50
2022/05/31 11:12:46;;;;;;;2.10;0.75;;;24.10;43.80;;;;;;5025314;28;20509;-50
2022/05/31 11:15:28;;;;;;;2.60;0.85;;;24.10;43.80;;;;;;5025221;28;20109;-49
2022/05/31 11:18:16;;;;;;;2.53;1.00;;;24.10;43.80;;;;;;5023561;28;20029;-50
2022/05/31 11:20:57;;;;;;;2.25;0.70;;;24.10;43.80;;;;;;5025511;28;20025;-50
2022/05/31 11:23:39;;;;;;;3.00;0.90;;;24.10;43.80;;;;;;5024364;28;20026;-50
2022/05/31 11:27:06;;;;;;;1.73;0.90;;;24.10;43.80;;;;;;5025388;28;20028;-50
2022/05/31 11:29:51;;;;;;;2.65;1.20;;;24.10;43.80;;;;;;4982790;28;20084;-50
2022/05/31 11:32:38;;;;;;;2.83;0.98;;;24.10;43.80;;;;;;5024968;28;20025;-50
2022/05/31 11:35:24;;;;;;;2.58;0.90;;;24.10;43.80;;;;;;5024836;28;20501;-50
2022/05/31 11:38:03;;;;;;;2.83;0.90;;;24.10;43.70;;;;;;5025502;28;20352;-51
2022/05/31 11:40:43;;;;;;;2.33;0.80;;;24.10;43.70;;;;;;5024136;28;20105;-50
2022/05/31 11:43:47;;;;;;;2.63;0.88;;;24.20;43.70;;;;;;5021974;28;20060;-50
2022/05/31 11:46:15;;;;;;;;;;;24.20;43.70;;;;;;5025568;28;20784;-50
2022/05/31 11:49:03;;;;;;;1.90;0.70;;;24.20;43.70;;;;;;5024618;28;19916;-50
2022/05/31 11:51:50;;;;;;;1.88;0.73;;;24.10;43.70;;;;;;5024808;28;20035;-51
2022/05/31 11:54:21;;;;;;;2.00;0.80;;;24.20;43.70;;;;;;5005081;28;20075;-49
2022/05/31 11:57:02;;;;;;;1.63;0.65;;;24.20;43.80;;;;;;5020090;28;20021;-50
2022/05/31 11:59:31;;;;;;;2.88;1.08;;;24.20;43.70;;;;;;5024718;28;20104;-51
2022/05/31 12:02:21;;;;;;;1.85;0.70;;;24.20;43.70;;;;;;5024470;28;20083;-51
2022/05/31 12:04:54;;;;;;;2.42;0.90;;;24.20;43.70;;;;;;5024772;28;20091;-50
2022/05/31 12:07:26;;;;;;;;;;;24.20;43.70;;;;;;5024821;28;20065;-51
2022/05/31 12:10:04;;;;;;;2.17;0.80;;;24.20;43.70;;;;;;5024509;28;19920;-51
2022/05/31 12:12:32;;;;;;;1.98;0.80;;;24.20;43.80;;;;;;5024479;28;20108;-50
2022/05/31 12:15:06;;;;;;;1.73;0.60;;;24.30;43.80;;;;;;5024375;28;20049;-49
2022/05/31 12:17:39;;;;;;;2.03;0.90;;;24.20;43.80;;;;;;5024636;28;20022;-49
2022/05/31 12:20:08;;;;;;;2.08;0.80;;;24.30;43.80;;;;;;5024150;28;20517;-50
2022/05/31 12:22:40;;;;;;;1.95;0.70;;;24.30;43.80;;;;;;5023622;28;20052;-51
2022/05/31 12:25:12;;;;;;;1.63;0.70;;;24.30;43.90;;;;;;5024247;28;20059;-50
2022/05/31 12:27:43;;;;;;;1.83;0.82;;;24.30;43.80;;;;;;5024255;28;20022;-51
2022/05/31 12:30:25;;;;;;;1.52;0.57;;;24.40;43.80;;;;;;5024419;28;20061;-51
2022/05/31 12:32:54;;;;;;;1.92;0.70;;;24.40;43.80;;;;;;5023994;28;20160;-50
2022/05/31 12:35:32;;;;;;;1.90;0.80;;;24.40;43.80;;;;;;5024375;28;20106;-51
2022/05/31 12:38:01;;;;;;;2.67;0.77;;;24.40;43.70;;;;;;5024257;28;20017;-51
2022/05/31 12:40:32;;;;;;;1.80;0.70;;;24.40;43.70;;;;;;5024545;28;20029;-50
2022/05/31 12:43:00;;;;;;;1.58;0.60;;;24.40;43.70;;;;;;5022438;28;20223;-50
2022/05/31 12:45:47;;;;;;;1.90;0.68;;;24.50;43.70;;;;;;5023700;28;20310;-51
2022/05/31 12:48:19;;;;;;;2.03;0.80;;;24.50;43.70;;;;;;5024472;28;20021;-51
2022/05/31 12:50:50;;;;;;;1.42;0.60;;;24.50;43.70;;;;;;5024217;28;20087;-51
2022/05/31 12:53:22;;;;;;;1.35;0.60;;;24.50;43.70;;;;;;5023695;28;20037;-50
2022/05/31 12:55:47;;;;;;;1.58;0.70;;;24.60;43.60;;;;;;5021732;28;20449;-50
2022/05/31 12:58:35;;;;;;;1.25;0.50;;;24.50;43.60;;;;;;5023691;28;20105;-50
2022/05/31 13:01:27;;;;;;;1.83;0.70;;;24.60;43.60;;;;;;5023662;28;20034;-54
2022/05/31 13:03:56;;;;;;;1.67;0.77;;;24.60;43.90;;;;;;5023195;28;20026;-51
2022/05/31 13:06:56;;;;;;;1.13;0.40;;;24.60;43.50;;;;;;5024156;28;20107;-51
2022/05/31 13:09:25;;;;;;;1.77;0.65;;;24.60;43.50;;;;;;5023786;28;20034;-51
2022/05/31 13:20:33;;;;;;;1.95;0.55;;;24.70;43.40;;;;;;5023653;28;20072;-50
2022/05/31 13:23:24;;;;;;;2.22;0.90;;;24.70;43.30;;;;;;5023851;28;20029;-50
2022/05/31 13:25:56;;;;;;;1.85;0.65;;;24.80;43.30;;;;;;5016228;28;20920;-50
2022/05/31 13:28:36;;;;;;;1.30;0.47;;;24.80;43.30;;;;;;5022758;28;20077;-51
2022/05/31 13:31:14;;;;;;;1.27;0.70;;;24.80;43.10;;;;;;5022778;28;20053;-50
2022/05/31 13:33:40;;;;;;;1.35;0.57;;;24.80;43.30;;;;;;5023434;28;20021;-51
2022/05/31 13:36:24;;;;;;;1.70;0.70;;;24.80;43.30;;;;;;5023726;28;20375;-51
2022/05/31 13:38:58;;;;;;;1.30;0.50;;;24.80;43.30;;;;;;5023418;28;20490;-50